TimeMDT,TemperatureF,Dew PointF,Humidity,Sea Level PressureIn,VisibilityMPH,Wind Direction,Wind SpeedMPH,Gust SpeedMPH,PrecipitationIn,Events,Conditions,WindDirDegrees,DateUTC
12:53 AM,45.0,28.9,53,29.81,10.0,WNW,9.2,-,N/A,,Overcast,290,2013-10-11 06:53:00
1:53 AM,44.1,30.9,60,29.83,10.0,SW,8.1,-,N/A,,Overcast,220,2013-10-11 07:53:00
2:53 AM,44.1,30.9,60,29.85,10.0,West,6.9,-,N/A,,Overcast,280,2013-10-11 08:53:00
3:53 AM,43.0,33.1,68,29.88,10.0,Calm,Calm,-,N/A,,Overcast,0,2013-10-11 09:53:00
4:53 AM,42.1,32.0,67,29.90,10.0,WSW,5.8,-,N/A,,Overcast,240,2013-10-11 10:53:00
5:53 AM,42.1,33.1,70,29.91,10.0,West,9.2,-,N/A,,Overcast,260,2013-10-11 11:53:00
6:53 AM,39.9,28.9,65,29.92,10.0,West,11.5,-,N/A,,Mostly Cloudy,270,2013-10-11 12:53:00
7:53 AM,39.9,28.9,65,29.94,10.0,West,15.0,-,N/A,,Mostly Cloudy,260,2013-10-11 13:53:00
8:53 AM,43.0,28.0,56,29.95,10.0,WSW,16.1,-,N/A,,Mostly Cloudy,250,2013-10-11 14:53:00
9:53 AM,46.0,28.0,50,29.95,10.0,WSW,17.3,-,N/A,,Overcast,250,2013-10-11 15:53:00
10:53 AM,46.9,23.0,39,29.97,10.0,West,16.1,21.9,N/A,,Overcast,280,2013-10-11 16:53:00
11:53 AM,46.9,21.0,36,29.99,10.0,WNW,10.4,-,N/A,,Mostly Cloudy,290,2013-10-11 17:53:00
12:53 PM,46.9,21.9,37,29.98,10.0,NW,10.4,-,N/A,,Overcast,310,2013-10-11 18:53:00
1:53 PM,46.9,25.0,42,29.98,10.0,NNW,15.0,21.9,N/A,,Overcast,340,2013-10-11 19:53:00
2:53 PM,48.0,23.0,37,29.97,10.0,NNW,12.7,-,N/A,,Overcast,330,2013-10-11 20:53:00
3:53 PM,51.1,24.1,35,29.97,10.0,West,6.9,-,N/A,,Overcast,280,2013-10-11 21:53:00
4:49 PM,51.8,19.4,28,29.98,10.0,WSW,16.1,-,N/A,,Mostly Cloudy,250,2013-10-11 22:49:00
4:53 PM,52.0,21.0,30,29.97,10.0,West,17.3,23.0,N/A,,Mostly Cloudy,270,2013-10-11 22:53:00
5:53 PM,48.9,19.9,32,29.99,10.0,West,15.0,-,N/A,,Clear,260,2013-10-11 23:53:00
6:53 PM,39.9,21.0,47,30.03,10.0,West,6.9,-,N/A,,Clear,260,2013-10-12 00:53:00
7:53 PM,36.0,21.0,55,30.06,10.0,WSW,8.1,-,N/A,,Clear,240,2013-10-12 01:53:00
8:53 PM,37.0,21.0,52,30.05,10.0,WNW,5.8,-,N/A,,Clear,300,2013-10-12 02:53:00
9:53 PM,28.9,19.0,67,30.07,10.0,WSW,4.6,-,N/A,,Clear,240,2013-10-12 03:53:00
10:53 PM,32.0,21.0,64,30.07,10.0,NW,6.9,-,N/A,,Clear,320,2013-10-12 04:53:00
11:53 PM,30.0,19.9,66,30.08,10.0,Calm,Calm,-,N/A,,Clear,0,2013-10-12 05:53:00